createdAt,value
2018-08-31T00:02:05.686Z,10.83
2018-08-31T00:04:45.571Z,9.90
2018-08-31T00:07:31.240Z,13.03
2018-08-31T00:12:45.358Z,10.53
2018-08-31T00:15:14.927Z,11.87
2018-08-31T00:17:44.552Z,14.53
2018-08-31T00:20:14.438Z,12.57
2018-08-31T00:22:43.739Z,14.53
2018-08-31T00:25:23.419Z,14.53
2018-08-31T00:28:03.312Z,16.20
2018-08-31T00:30:43.739Z,12.77
2018-08-31T00:33:29.003Z,14.37
2018-08-31T00:38:41.856Z,15.77
2018-08-31T00:41:22.163Z,15.07
2018-08-31T00:46:09.668Z,14.77
2018-08-31T00:48:39.046Z,10.90
2018-08-31T00:51:07.900Z,11.23
2018-08-31T00:53:37.129Z,12.77
2018-08-31T00:56:06.378Z,11.67
2018-08-31T00:58:36.507Z,11.00
2018-08-31T01:01:05.671Z,11.30
2018-08-31T01:03:34.755Z,9.90
2018-08-31T01:06:03.675Z,10.23
2018-08-31T01:08:32.640Z,11.70
2018-08-31T01:11:02.484Z,9.87
2018-08-31T01:13:31.456Z,11.53
2018-08-31T01:16:00.932Z,10.97
2018-08-31T01:18:29.770Z,11.03
2018-08-31T01:20:58.583Z,10.80
2018-08-31T01:23:28.327Z,11.50
2018-08-31T01:25:58.029Z,11.07
2018-08-31T01:28:26.790Z,10.83
2018-08-31T01:30:56.846Z,9.23
2018-08-31T01:33:26.497Z,9.80
2018-08-31T01:35:55.267Z,9.07
2018-08-31T01:38:24.069Z,8.73
2018-08-31T01:40:53.343Z,9.23
2018-08-31T01:43:22.137Z,9.17
2018-08-31T01:45:50.930Z,8.23
2018-08-31T01:48:21.091Z,8.03
2018-08-31T01:50:55.039Z,8.23
2018-08-31T01:53:28.017Z,7.40
2018-08-31T01:55:56.875Z,7.57
2018-08-31T01:58:26.049Z,9.00
2018-08-31T02:00:54.897Z,6.77
2018-08-31T02:03:23.683Z,7.87
2018-08-31T02:05:52.549Z,8.03
2018-08-31T02:08:21.349Z,7.90
2018-08-31T02:10:50.968Z,8.83
2018-08-31T02:13:19.809Z,6.93
2018-08-31T02:15:49.408Z,6.93
2018-08-31T02:18:18.228Z,7.17
2018-08-31T02:20:46.995Z,7.43
2018-08-31T02:23:16.207Z,8.43
2018-08-31T02:25:45.103Z,8.00
2018-08-31T02:28:14.028Z,7.57
2018-08-31T02:30:43.353Z,7.73
2018-08-31T02:33:12.652Z,7.40
2018-08-31T02:35:41.424Z,7.37
2018-08-31T02:38:10.271Z,8.73
2018-08-31T02:40:39.450Z,8.60
2018-08-31T02:43:08.493Z,8.33
2018-08-31T02:45:37.396Z,8.57
2018-08-31T02:48:08.048Z,8.43
2018-08-31T02:50:37.120Z,9.30
2018-08-31T02:53:06.936Z,8.13
2018-08-31T02:55:35.910Z,8.50
2018-08-31T02:58:06.160Z,8.23
2018-08-31T03:00:35.139Z,8.13
2018-08-31T03:03:04.296Z,10.00
2018-08-31T03:05:33.466Z,9.30
2018-08-31T03:08:02.275Z,9.57
2018-08-31T03:10:31.571Z,9.10
2018-08-31T03:13:00.371Z,9.17
2018-08-31T03:15:30.434Z,9.30
2018-08-31T03:17:59.171Z,9.30
2018-08-31T03:20:27.982Z,10.17
2018-08-31T03:22:57.490Z,9.80
2018-08-31T03:25:26.280Z,9.17
2018-08-31T03:27:55.193Z,9.67
2018-08-31T03:30:24.521Z,10.43
2018-08-31T03:32:53.304Z,10.17
2018-08-31T03:35:22.903Z,9.97
2018-08-31T03:37:51.734Z,8.73
2018-08-31T03:40:21.064Z,8.77
2018-08-31T03:42:50.012Z,10.10
2018-08-31T03:45:18.775Z,8.83
2018-08-31T03:47:48.451Z,8.90
2018-08-31T03:50:17.319Z,10.40
2018-08-31T03:52:46.111Z,9.03
2018-08-31T03:55:15.687Z,9.50
2018-08-31T03:57:45.509Z,8.47
2018-08-31T04:00:14.643Z,7.40
2018-08-31T04:02:43.535Z,9.37
2018-08-31T04:05:12.472Z,9.33
2018-08-31T04:07:41.242Z,10.17
2018-08-31T04:10:10.706Z,9.50
2018-08-31T04:12:39.508Z,8.60
2018-08-31T04:15:09.731Z,7.13
2018-08-31T04:17:38.489Z,7.87
2018-08-31T04:20:08.411Z,9.13
2018-08-31T04:22:37.682Z,8.43
2018-08-31T04:25:06.787Z,8.47
2018-08-31T04:27:36.001Z,6.83
2018-08-31T04:30:06.798Z,7.47
2018-08-31T04:32:35.922Z,6.63
2018-08-31T04:35:05.532Z,7.87
2018-08-31T04:37:34.780Z,7.43
2018-08-31T04:40:06.084Z,7.83
2018-08-31T04:42:34.888Z,6.10
2018-08-31T04:45:03.903Z,6.90
2018-08-31T04:47:32.777Z,7.70
2018-08-31T04:50:02.303Z,5.30
2018-08-31T04:52:31.066Z,8.30
2018-08-31T04:54:59.801Z,6.17
2018-08-31T04:57:29.786Z,8.83
2018-08-31T04:59:58.528Z,5.87
2018-08-31T05:02:27.334Z,7.30
2018-08-31T05:04:56.124Z,8.93
2018-08-31T05:07:24.980Z,6.13
2018-08-31T05:09:54.599Z,6.50
2018-08-31T05:12:23.363Z,5.37
2018-08-31T05:14:52.960Z,6.30
2018-08-31T05:17:21.715Z,5.27
2018-08-31T05:19:50.468Z,5.87
2018-08-31T05:22:20.036Z,5.87
2018-08-31T05:24:48.731Z,6.20
2018-08-31T05:27:17.507Z,7.77
2018-08-31T05:29:47.213Z,5.70
2018-08-31T05:32:16.248Z,5.23
2018-08-31T05:34:45.886Z,5.23
2018-08-31T05:37:14.786Z,5.17
2018-08-31T05:39:44.022Z,5.07
2018-08-31T05:42:13.441Z,6.00
2018-08-31T05:44:42.858Z,6.40
2018-08-31T05:47:11.693Z,4.30
2018-08-31T05:49:41.186Z,6.13
2018-08-31T05:52:09.982Z,5.17
2018-08-31T05:54:38.736Z,4.07
2018-08-31T05:57:07.504Z,4.50
2018-08-31T05:59:36.735Z,5.60
2018-08-31T06:02:06.234Z,4.17
2018-08-31T06:04:35.403Z,3.90
2018-08-31T06:07:04.580Z,3.93
2018-08-31T06:09:34.462Z,5.50
2018-08-31T06:12:03.299Z,3.70
2018-08-31T06:14:31.981Z,4.03
2018-08-31T06:17:01.655Z,3.27
2018-08-31T06:19:30.560Z,5.03
2018-08-31T06:22:00.070Z,3.10
2018-08-31T06:24:29.116Z,3.63
2018-08-31T06:26:57.864Z,3.10
2018-08-31T06:29:26.843Z,3.60
2018-08-31T06:31:56.292Z,3.40
2018-08-31T06:34:25.480Z,3.27
2018-08-31T06:36:54.211Z,2.13
2018-08-31T06:39:23.822Z,2.90
2018-08-31T06:41:52.623Z,1.83
2018-08-31T06:44:21.589Z,2.07
2018-08-31T06:46:50.387Z,1.43
2018-08-31T06:49:19.844Z,1.50
2018-08-31T06:51:48.618Z,1.17
2018-08-31T06:54:17.390Z,1.20
2018-08-31T06:56:46.714Z,1.20
2018-08-31T06:59:16.135Z,1.40
2018-08-31T07:01:44.974Z,1.43
2018-08-31T07:04:13.790Z,1.77
2018-08-31T07:06:42.562Z,1.80
2018-08-31T07:09:12.624Z,1.23
2018-08-31T07:11:42.080Z,1.47
2018-08-31T07:14:10.874Z,1.23
2018-08-31T07:16:40.086Z,1.40
2018-08-31T07:19:09.004Z,0.90
2018-08-31T07:21:38.460Z,1.73
2018-08-31T07:24:07.667Z,0.80
2018-08-31T07:26:36.921Z,1.60
2018-08-31T07:29:06.230Z,1.57
2018-08-31T07:31:36.308Z,1.70
2018-08-31T07:34:06.187Z,1.23
2018-08-31T07:36:35.371Z,1.50
2018-08-31T07:39:05.958Z,1.27
2018-08-31T07:41:34.823Z,2.50
2018-08-31T07:44:03.792Z,1.17
2018-08-31T07:46:32.638Z,1.60
2018-08-31T07:49:02.375Z,1.73
2018-08-31T07:51:31.121Z,1.50
2018-08-31T07:53:59.922Z,1.13
2018-08-31T07:56:29.231Z,1.57
2018-08-31T07:58:57.980Z,1.33
2018-08-31T08:01:26.778Z,1.83
2018-08-31T08:03:55.559Z,1.20
2018-08-31T08:06:24.364Z,1.83
2018-08-31T08:08:53.213Z,1.73
2018-08-31T08:11:22.488Z,1.50
2018-08-31T08:13:51.248Z,1.53
2018-08-31T08:16:20.627Z,1.53
2018-08-31T08:18:49.472Z,1.60
2018-08-31T08:21:19.002Z,1.93
2018-08-31T08:23:48.330Z,1.83
2018-08-31T08:26:17.271Z,2.70
2018-08-31T08:28:46.118Z,1.77
2018-08-31T08:31:15.847Z,1.57
2018-08-31T08:33:46.160Z,2.40
2018-08-31T08:36:15.384Z,2.17
2018-08-31T08:38:44.222Z,1.70
2018-08-31T08:41:13.799Z,1.30
2018-08-31T08:43:42.596Z,1.60
2018-08-31T08:46:11.454Z,1.70
2018-08-31T08:48:41.139Z,1.57
2018-08-31T08:51:09.920Z,1.43
2018-08-31T08:53:38.737Z,2.20
2018-08-31T08:56:07.914Z,2.80
2018-08-31T08:58:37.374Z,1.50
2018-08-31T09:01:07.680Z,1.67
2018-08-31T09:03:36.904Z,2.50
2018-08-31T09:06:06.056Z,1.60
2018-08-31T09:08:35.206Z,1.60
2018-08-31T09:11:04.967Z,2.10
2018-08-31T09:13:34.303Z,1.47
2018-08-31T09:16:03.839Z,1.90
2018-08-31T09:18:32.697Z,2.23
2018-08-31T09:21:01.524Z,2.50
2018-08-31T09:23:31.055Z,2.53
2018-08-31T09:26:02.256Z,2.57
2018-08-31T09:28:31.028Z,3.43
2018-08-31T09:31:00.857Z,5.73
2018-08-31T09:33:30.640Z,2.70
2018-08-31T09:35:59.416Z,2.80
2018-08-31T09:38:28.268Z,2.70
2018-08-31T09:40:57.391Z,3.20
2018-08-31T09:43:26.174Z,2.70
2018-08-31T09:45:54.947Z,3.07
2018-08-31T09:48:24.531Z,2.70
2018-08-31T09:50:53.300Z,3.20
2018-08-31T09:53:22.054Z,2.60
2018-08-31T09:55:50.991Z,3.17
2018-08-31T09:58:20.292Z,5.20
2018-08-31T10:00:55.233Z,3.63
2018-08-31T10:03:26.020Z,3.40
2018-08-31T10:05:55.865Z,3.30
2018-08-31T10:08:27.357Z,3.20
2018-08-31T10:10:56.777Z,3.40
2018-08-31T10:13:25.964Z,3.73
2018-08-31T10:15:55.744Z,3.50
2018-08-31T10:18:24.581Z,3.40
2018-08-31T10:20:53.425Z,3.57
2018-08-31T10:23:22.728Z,3.90
2018-08-31T10:25:51.536Z,3.80
2018-08-31T10:28:20.407Z,3.80
2018-08-31T10:30:49.943Z,3.97
2018-08-31T10:33:19.259Z,4.20
2018-08-31T10:35:48.066Z,4.57
2018-08-31T10:38:16.859Z,4.77
2018-08-31T10:40:46.484Z,5.27
2018-08-31T10:43:15.263Z,4.23
2018-08-31T10:45:58.825Z,4.17
2018-08-31T10:48:28.517Z,4.70
2018-08-31T10:50:57.273Z,4.17
2018-08-31T10:53:26.074Z,4.00
2018-08-31T10:55:54.840Z,3.70
2018-08-31T10:58:24.040Z,3.50
2018-08-31T11:00:52.895Z,4.20
2018-08-31T11:03:21.992Z,4.00
2018-08-31T11:05:50.845Z,3.40
2018-08-31T11:08:19.655Z,2.80
2018-08-31T11:10:49.292Z,4.10
2018-08-31T11:13:18.063Z,3.07
2018-08-31T11:15:47.292Z,2.63
2018-08-31T11:18:16.134Z,3.23
2018-08-31T11:20:45.149Z,2.17
2018-08-31T11:23:14.574Z,2.30
2018-08-31T11:25:43.372Z,5.00
2018-08-31T11:28:12.420Z,2.30
2018-08-31T11:30:41.997Z,3.90
2018-08-31T11:33:11.550Z,2.90
2018-08-31T11:35:40.662Z,2.70
2018-08-31T11:38:09.820Z,3.17
2018-08-31T11:40:39.098Z,3.13
2018-08-31T11:43:07.936Z,2.57
2018-08-31T11:45:37.070Z,3.43
2018-08-31T11:48:06.992Z,2.60
2018-08-31T11:50:35.979Z,3.10
2018-08-31T11:53:05.076Z,2.50
2018-08-31T11:55:34.275Z,3.17
2018-08-31T11:58:04.016Z,2.73
2018-08-31T12:00:32.756Z,4.13
2018-08-31T12:03:01.552Z,3.17
2018-08-31T12:05:30.395Z,4.13
2018-08-31T12:07:59.262Z,3.13
2018-08-31T12:10:28.641Z,3.50
2018-08-31T12:12:57.409Z,4.10
2018-08-31T12:15:26.774Z,4.27
2018-08-31T12:17:55.513Z,3.27
2018-08-31T12:20:24.515Z,4.20
2018-08-31T12:22:53.970Z,3.40
2018-08-31T12:25:22.760Z,3.13
2018-08-31T12:27:51.542Z,4.43
2018-08-31T12:30:21.036Z,4.97
2018-08-31T12:32:49.810Z,3.63
2018-08-31T12:35:19.221Z,3.93
2018-08-31T12:37:47.988Z,3.00
2018-08-31T12:40:17.780Z,2.73
2018-08-31T12:42:46.568Z,2.90
2018-08-31T12:45:15.635Z,3.63
2018-08-31T12:47:45.337Z,3.40
2018-08-31T12:50:14.582Z,2.80
2018-08-31T12:52:43.343Z,4.13
2018-08-31T12:55:12.393Z,2.67
2018-08-31T12:57:41.740Z,3.10
2018-08-31T13:00:10.680Z,3.13
2018-08-31T13:02:39.457Z,2.90
2018-08-31T13:05:08.454Z,2.50
2018-08-31T13:07:37.313Z,3.37
2018-08-31T13:10:07.059Z,2.37
2018-08-31T13:12:36.257Z,3.00
2018-08-31T13:15:06.211Z,2.60
2018-08-31T13:17:35.142Z,3.47
2018-08-31T13:20:04.269Z,2.70
2018-08-31T13:22:33.576Z,3.73
2018-08-31T13:25:02.403Z,2.63
2018-08-31T13:27:31.230Z,3.10
2018-08-31T13:30:00.555Z,2.40
2018-08-31T13:32:29.310Z,2.97
2018-08-31T13:34:58.762Z,2.10
2018-08-31T13:37:27.620Z,3.10
2018-08-31T13:39:56.907Z,2.53
2018-08-31T13:42:25.679Z,2.30
2018-08-31T13:44:54.435Z,1.90
2018-08-31T13:47:23.278Z,2.40
2018-08-31T13:49:52.869Z,2.40
2018-08-31T13:52:21.683Z,2.40
2018-08-31T13:54:50.442Z,2.40
2018-08-31T13:57:19.685Z,3.60
2018-08-31T13:59:48.461Z,2.17
2018-08-31T14:02:17.436Z,2.43
2018-08-31T14:04:46.222Z,2.17
2018-08-31T14:07:15.765Z,2.70
2018-08-31T14:09:45.669Z,4.80
2018-08-31T14:12:14.674Z,2.60
2018-08-31T14:14:44.041Z,2.20
2018-08-31T14:17:13.635Z,2.23
2018-08-31T14:19:42.493Z,2.70
2018-08-31T14:22:12.486Z,4.43
2018-08-31T14:24:41.328Z,2.40
2018-08-31T14:27:10.120Z,2.27
2018-08-31T14:29:39.991Z,2.90
2018-08-31T14:32:08.919Z,2.70
2018-08-31T14:34:38.280Z,2.60
2018-08-31T14:37:07.163Z,2.50
2018-08-31T14:39:36.927Z,2.63
2018-08-31T14:42:05.970Z,2.40
2018-08-31T14:44:35.146Z,3.03
2018-08-31T14:47:04.306Z,2.50
2018-08-31T14:49:34.149Z,2.63
2018-08-31T14:52:02.911Z,2.33
2018-08-31T14:54:31.704Z,2.90
2018-08-31T14:57:01.200Z,3.10
2018-08-31T14:59:29.996Z,3.73
2018-08-31T15:01:58.791Z,2.67
2018-08-31T15:04:27.623Z,3.37
2018-08-31T15:06:56.532Z,2.93
2018-08-31T15:09:26.214Z,4.10
2018-08-31T15:11:55.012Z,4.83
2018-08-31T15:14:23.959Z,4.07
2018-08-31T15:16:53.385Z,3.57
2018-08-31T15:19:22.216Z,4.37
2018-08-31T15:21:51.643Z,2.80
2018-08-31T15:24:20.481Z,3.33
2018-08-31T15:26:49.399Z,3.47
2018-08-31T15:29:18.253Z,2.93
2018-08-31T15:31:48.081Z,3.57
2018-08-31T15:34:17.543Z,2.67
2018-08-31T15:36:46.383Z,3.60
2018-08-31T15:39:16.239Z,4.10
2018-08-31T15:41:45.473Z,2.77
2018-08-31T15:44:15.726Z,2.90
2018-08-31T15:46:44.600Z,2.13
2018-08-31T15:49:14.612Z,1.90
2018-08-31T15:51:43.555Z,1.97
2018-08-31T15:54:12.571Z,2.20
2018-08-31T15:56:42.019Z,2.93
2018-08-31T15:59:11.135Z,2.27
2018-08-31T16:01:39.896Z,1.73
2018-08-31T16:04:10.491Z,2.00
2018-08-31T16:06:39.300Z,2.00
2018-08-31T16:09:09.165Z,1.80
2018-08-31T16:11:38.716Z,2.43
2018-08-31T16:14:07.569Z,1.87
2018-08-31T16:16:37.275Z,2.13
2018-08-31T16:19:06.709Z,1.90
2018-08-31T16:21:36.575Z,2.83
2018-08-31T16:24:06.251Z,1.90
2018-08-31T16:26:35.280Z,2.17
2018-08-31T16:29:04.581Z,1.80
2018-08-31T16:31:34.096Z,2.00
2018-08-31T16:34:04.121Z,2.03
2018-08-31T16:36:32.888Z,2.80
2018-08-31T16:39:02.449Z,1.67
2018-08-31T16:41:31.174Z,2.47
2018-08-31T16:43:59.963Z,2.40
2018-08-31T16:46:28.905Z,1.83
2018-08-31T16:48:58.418Z,2.63
2018-08-31T16:51:27.181Z,2.00
2018-08-31T16:53:56.043Z,2.53
2018-08-31T16:56:25.755Z,1.93
2018-08-31T16:58:54.594Z,2.43
2018-08-31T17:01:23.385Z,2.03
2018-08-31T17:03:52.502Z,2.50
2018-08-31T17:06:21.273Z,2.20
2018-08-31T17:08:50.331Z,2.53
2018-08-31T17:11:20.198Z,2.50
2018-08-31T17:13:49.068Z,2.70
2018-08-31T17:16:18.591Z,2.60
2018-08-31T17:18:47.428Z,3.10
2018-08-31T17:21:16.440Z,3.10
2018-08-31T17:23:46.084Z,2.70
2018-08-31T17:26:20.090Z,2.63
2018-08-31T17:28:53.930Z,2.90
2018-08-31T17:31:28.502Z,3.10
2018-08-31T17:34:03.425Z,3.60
2018-08-31T17:36:37.836Z,4.63
2018-08-31T17:39:09.155Z,3.07
2018-08-31T17:41:38.053Z,2.90
2018-08-31T17:44:07.852Z,3.00
2018-08-31T17:46:37.079Z,2.60
2018-08-31T17:49:07.098Z,3.30
2018-08-31T17:51:36.439Z,2.70
2018-08-31T17:54:06.267Z,2.73
2018-08-31T17:56:36.417Z,4.23
2018-08-31T17:59:05.946Z,3.33
2018-08-31T18:01:34.779Z,4.60
2018-08-31T18:04:03.775Z,3.57
2018-08-31T18:06:32.656Z,3.30
2018-08-31T18:09:01.594Z,4.77
2018-08-31T18:11:31.006Z,3.73
2018-08-31T18:13:59.794Z,3.37
2018-08-31T18:16:29.658Z,2.80
2018-08-31T18:18:58.455Z,3.27
2018-08-31T18:21:27.883Z,3.70
2018-08-31T18:23:57.320Z,3.40
2018-08-31T18:26:26.306Z,3.93
2018-08-31T18:28:55.115Z,3.67
2018-08-31T18:31:24.564Z,3.50
2018-08-31T18:33:53.841Z,3.40
2018-08-31T18:36:22.649Z,3.97
2018-08-31T18:38:52.210Z,3.40
2018-08-31T18:41:20.987Z,3.47
2018-08-31T18:43:49.740Z,3.03
2018-08-31T18:46:18.705Z,4.03
2018-08-31T18:48:48.018Z,4.43
2018-08-31T18:51:16.923Z,4.23
2018-08-31T18:53:45.738Z,3.23
2018-08-31T18:56:14.775Z,4.87
2018-08-31T18:58:44.221Z,3.73
2018-08-31T19:01:13.118Z,3.73
2018-08-31T19:03:41.928Z,4.03
2018-08-31T19:06:11.535Z,4.57
2018-08-31T19:08:40.361Z,3.73
2018-08-31T19:11:10.015Z,4.63
2018-08-31T19:13:38.920Z,4.23
2018-08-31T19:16:08.740Z,4.03
2018-08-31T19:18:37.700Z,5.83
2018-08-31T19:21:06.979Z,6.23
2018-08-31T19:23:36.615Z,6.17
2018-08-31T19:26:05.800Z,3.80
2018-08-31T19:28:34.828Z,3.93
2018-08-31T19:31:04.464Z,4.00
2018-08-31T19:33:33.849Z,3.47
2018-08-31T19:36:02.823Z,4.73
2018-08-31T19:38:32.143Z,4.97
2018-08-31T19:41:02.095Z,4.57
2018-08-31T19:43:30.967Z,4.23
2018-08-31T19:45:59.802Z,5.27
2018-08-31T19:48:29.181Z,5.63
2018-08-31T19:50:58.012Z,5.30
2018-08-31T19:53:26.863Z,5.63
2018-08-31T19:55:55.661Z,5.97
2018-08-31T19:58:25.650Z,5.97
2018-08-31T20:00:54.507Z,8.87
2018-08-31T20:03:23.291Z,6.37
2018-08-31T20:05:52.115Z,7.90
2018-08-31T20:08:20.898Z,8.63
2018-08-31T20:10:50.587Z,7.47
2018-08-31T20:13:19.411Z,7.20
2018-08-31T20:15:48.985Z,6.13
2018-08-31T20:18:17.787Z,5.30
2018-08-31T20:20:46.712Z,7.57
2018-08-31T20:23:16.240Z,6.00
2018-08-31T20:25:45.196Z,6.50
2018-08-31T20:28:14.023Z,6.63
2018-08-31T20:30:43.716Z,6.10
2018-08-31T20:33:13.171Z,6.30
2018-08-31T20:35:41.956Z,5.60
2018-08-31T20:38:10.698Z,5.70
2018-08-31T20:40:41.316Z,5.97
2018-08-31T20:43:10.347Z,6.47
2018-08-31T20:45:39.137Z,5.57
2018-08-31T20:48:08.760Z,5.57
2018-08-31T20:50:37.555Z,5.90
2018-08-31T20:53:06.806Z,6.90
2018-08-31T20:55:35.997Z,6.30
2018-08-31T20:58:05.955Z,5.83
2018-08-31T21:00:35.148Z,7.57
2018-08-31T21:03:04.671Z,6.60
2018-08-31T21:05:33.547Z,6.60
2018-08-31T21:08:02.361Z,6.30
2018-08-31T21:10:31.847Z,6.30
2018-08-31T21:13:00.653Z,9.33
2018-08-31T21:15:30.354Z,5.53
2018-08-31T21:17:59.274Z,6.87
2018-08-31T21:20:28.068Z,6.30
2018-08-31T21:22:57.726Z,7.27
2018-08-31T21:25:26.558Z,6.77
2018-08-31T21:27:55.356Z,8.20
2018-08-31T21:30:24.692Z,7.93
2018-08-31T21:32:53.587Z,7.30
2018-08-31T21:35:23.092Z,8.17
2018-08-31T21:37:51.878Z,8.20
2018-08-31T21:40:21.278Z,8.17
2018-08-31T21:42:50.470Z,9.33
2018-08-31T21:45:19.257Z,6.87
2018-08-31T21:47:49.070Z,7.30
2018-08-31T21:50:17.889Z,7.73
2018-08-31T21:52:46.780Z,8.27
2018-08-31T21:55:15.807Z,7.80
2018-08-31T21:57:46.257Z,7.87
2018-08-31T22:00:18.171Z,7.53
2018-08-31T22:02:47.491Z,6.07
2018-08-31T22:05:16.329Z,5.77
2018-08-31T22:07:45.305Z,5.70
2018-08-31T22:10:15.295Z,5.67
2018-08-31T22:12:44.334Z,5.90
2018-08-31T22:15:19.242Z,5.50
2018-08-31T22:17:48.163Z,6.13
2018-08-31T22:20:16.916Z,6.23
2018-08-31T22:22:46.335Z,6.90
2018-08-31T22:25:15.350Z,5.40
2018-08-31T22:27:44.475Z,5.80
2018-08-31T22:30:13.684Z,6.03
2018-08-31T22:32:42.461Z,5.57
2018-08-31T22:35:11.989Z,6.60
2018-08-31T22:37:40.800Z,6.87
2018-08-31T22:40:10.295Z,6.17
2018-08-31T22:42:39.264Z,5.67
2018-08-31T22:45:15.778Z,7.13
2018-08-31T22:47:46.085Z,6.60
2018-08-31T22:50:15.223Z,5.60
2018-08-31T22:52:44.627Z,6.53
2018-08-31T22:55:13.650Z,6.40
2018-08-31T22:57:43.573Z,6.70
2018-08-31T23:00:13.212Z,8.43
2018-08-31T23:02:42.287Z,6.63
2018-08-31T23:05:11.219Z,7.90
2018-08-31T23:07:48.823Z,7.60
2018-08-31T23:10:18.132Z,6.77
2018-08-31T23:12:47.204Z,7.70
2018-08-31T23:15:16.798Z,7.27
2018-08-31T23:17:45.701Z,6.47
2018-08-31T23:20:14.733Z,7.47
2018-08-31T23:22:45.043Z,7.03
2018-08-31T23:25:19.130Z,6.00
2018-08-31T23:27:48.128Z,7.07
2018-08-31T23:30:17.734Z,6.57
2018-08-31T23:32:47.269Z,7.87
2018-08-31T23:35:16.560Z,6.40
2018-08-31T23:37:45.731Z,6.73
2018-08-31T23:40:15.107Z,7.67
2018-08-31T23:42:44.132Z,6.43
2018-08-31T23:45:13.192Z,6.47
2018-08-31T23:47:44.041Z,6.93
2018-08-31T23:50:13.481Z,5.83
2018-08-31T23:52:42.368Z,7.10
2018-08-31T23:55:11.263Z,5.73
2018-08-31T23:57:40.695Z,5.43
